TAF Text Data
IDs:
Format:
Raw Decoded Include METAR

Data at: 0450 UTC 18 Oct 2018

KPEQ 180435Z AUTO 07004KT 7SM DZ BKN007 BKN013 OVC018 08/07 A3044 RMK AO2 T00770070

KPEQ 180334Z 1804/1824 04007KT 5SM -DZ BR SCT005 OVC010
  TEMPO 1804/1807 3SM -RA BR BKN004
  FM180700 05009KT 4SM -DZ BR SCT003 OVC008
  TEMPO 1807/1811 2SM -RA BR BKN003
  FM181100 06008KT 3SM -DZ BR SCT001 BKN005
  TEMPO 1811/1815 1SM -DZ BR BKN002